createdAt,value
2017-09-16T00:00:21.230Z,85.43
2017-09-16T00:02:47.539Z,85.50
2017-09-16T00:05:14.530Z,88.56
2017-09-16T00:07:40.778Z,88.08
2017-09-16T00:10:07.089Z,87.42
2017-09-16T00:12:33.368Z,85.65
2017-09-16T00:14:59.669Z,85.56
2017-09-16T00:17:25.893Z,87.02
2017-09-16T00:19:52.085Z,89.83
2017-09-16T00:22:18.406Z,88.96
2017-09-16T00:24:44.733Z,89.67
2017-09-16T00:27:11.061Z,90.37
2017-09-16T00:29:37.258Z,86.37
2017-09-16T00:32:03.517Z,86.54
2017-09-16T00:34:29.757Z,87.41
2017-09-16T00:36:57.126Z,87.48
2017-09-16T00:39:23.325Z,86.98
2017-09-16T00:41:49.626Z,87.46
2017-09-16T00:44:15.923Z,86.76
2017-09-16T00:46:42.247Z,86.89
2017-09-16T00:49:08.468Z,87.21
2017-09-16T00:51:34.753Z,86.24
2017-09-16T00:54:01.113Z,86.62
2017-09-16T00:56:28.130Z,88.00
2017-09-16T00:58:54.371Z,88.45
2017-09-16T01:01:20.663Z,87.36
2017-09-16T01:03:47.654Z,88.76
2017-09-16T01:06:13.843Z,87.14
2017-09-16T01:08:40.810Z,88.62
2017-09-16T01:11:07.122Z,87.38
2017-09-16T01:13:34.145Z,87.39
2017-09-16T01:16:00.381Z,87.40
2017-09-16T01:18:26.805Z,88.67
2017-09-16T01:20:53.009Z,87.29
2017-09-16T01:23:19.269Z,87.29
2017-09-16T01:25:45.606Z,89.08
2017-09-16T01:28:12.041Z,90.25
2017-09-16T01:30:38.290Z,90.29
2017-09-16T01:33:04.529Z,90.43
2017-09-16T01:35:30.933Z,87.85
2017-09-16T01:37:57.190Z,90.65
2017-09-16T01:40:23.425Z,91.61
2017-09-16T01:42:49.718Z,89.58
2017-09-16T01:45:16.031Z,92.29
2017-09-16T01:47:44.029Z,92.26
2017-09-16T01:50:10.289Z,91.07
2017-09-16T01:52:36.495Z,91.60
2017-09-16T01:55:02.767Z,91.70
2017-09-16T01:57:29.235Z,90.55
2017-09-16T01:59:55.513Z,89.71
2017-09-16T02:02:21.797Z,90.05
2017-09-16T02:04:48.105Z,90.54
2017-09-16T02:07:14.333Z,89.37
2017-09-16T02:09:40.777Z,90.57
2017-09-16T02:12:06.986Z,91.92
2017-09-16T02:14:34.045Z,91.77
2017-09-16T02:17:00.240Z,89.23
2017-09-16T02:19:26.429Z,89.99
2017-09-16T02:21:52.705Z,90.31
2017-09-16T02:24:19.005Z,89.12
2017-09-16T02:26:45.257Z,89.65
2017-09-16T02:29:11.486Z,89.17
2017-09-16T02:31:37.717Z,88.96
2017-09-16T02:34:08.377Z,89.00
2017-09-16T02:36:34.756Z,89.49
2017-09-16T02:39:01.796Z,90.37
2017-09-16T02:41:28.060Z,90.34
2017-09-16T02:43:54.306Z,89.34
2017-09-16T02:46:24.015Z,90.34
2017-09-16T02:48:51.236Z,89.68
2017-09-16T02:51:18.397Z,89.38
2017-09-16T02:53:45.407Z,90.03
2017-09-16T02:56:12.647Z,88.70
2017-09-16T02:58:38.851Z,88.67
2017-09-16T03:01:05.104Z,89.03
2017-09-16T03:03:31.334Z,88.18
2017-09-16T03:05:57.613Z,88.34
2017-09-16T03:08:23.914Z,88.92
2017-09-16T03:10:50.429Z,90.65
2017-09-16T03:13:17.396Z,89.75
2017-09-16T03:15:43.637Z,90.16
2017-09-16T03:18:09.869Z,90.47
2017-09-16T03:20:36.145Z,89.84
2017-09-16T03:23:02.602Z,88.97
2017-09-16T03:25:29.609Z,89.61
2017-09-16T03:27:55.821Z,91.05
2017-09-16T03:30:22.101Z,89.68
2017-09-16T03:32:48.313Z,90.07
2017-09-16T03:35:14.537Z,88.93
2017-09-16T03:37:40.762Z,88.93
2017-09-16T03:40:06.985Z,89.05
2017-09-16T03:42:33.177Z,89.96
2017-09-16T03:44:59.406Z,89.42
2017-09-16T03:47:25.709Z,89.31
2017-09-16T03:49:51.941Z,92.20
2017-09-16T03:52:18.222Z,89.37
2017-09-16T03:54:44.526Z,89.03
2017-09-16T03:57:10.757Z,90.87
2017-09-16T03:59:36.970Z,91.57
2017-09-16T04:02:15.421Z,91.37
2017-09-16T04:04:41.781Z,90.58
2017-09-16T04:07:08.694Z,89.94
2017-09-16T04:09:35.130Z,89.91
2017-09-16T04:12:01.377Z,89.96
2017-09-16T04:14:27.576Z,91.09
2017-09-16T04:16:53.837Z,91.11
2017-09-16T04:19:20.037Z,90.70
2017-09-16T04:21:46.266Z,90.51
2017-09-16T04:24:13.282Z,92.20
2017-09-16T04:26:40.396Z,91.46
2017-09-16T04:29:06.618Z,91.36
2017-09-16T04:31:32.849Z,91.57
2017-09-16T04:33:59.100Z,91.58
2017-09-16T04:36:25.479Z,91.06
2017-09-16T04:38:51.734Z,91.21
2017-09-16T04:41:18.742Z,91.94
2017-09-16T04:43:44.977Z,93.22
2017-09-16T04:46:11.237Z,91.68
2017-09-16T04:48:37.526Z,92.14
2017-09-16T04:51:03.704Z,93.16
2017-09-16T04:53:30.075Z,92.18
2017-09-16T04:55:59.388Z,92.19
2017-09-16T04:58:25.596Z,93.59
2017-09-16T05:00:51.886Z,93.05
2017-09-16T05:03:18.093Z,93.16
2017-09-16T05:05:44.300Z,93.20
2017-09-16T05:08:11.322Z,92.57
2017-09-16T05:10:37.601Z,93.26
2017-09-16T05:13:04.720Z,93.32
2017-09-16T05:15:31.022Z,92.72
2017-09-16T05:17:57.269Z,93.22
2017-09-16T05:20:23.486Z,93.02
2017-09-16T05:22:49.736Z,93.79
2017-09-16T05:25:15.962Z,94.66
2017-09-16T05:27:43.232Z,93.23
2017-09-16T05:30:09.474Z,93.71
2017-09-16T05:32:35.837Z,94.16
2017-09-16T05:35:02.131Z,93.92
2017-09-16T05:37:28.345Z,93.33
2017-09-16T05:39:54.609Z,93.92
2017-09-16T05:42:20.836Z,94.78
2017-09-16T05:44:47.068Z,94.26
2017-09-16T05:47:13.285Z,95.60
2017-09-16T05:49:39.566Z,97.04
2017-09-16T05:52:05.889Z,95.72
2017-09-16T05:54:32.237Z,96.13
2017-09-16T05:56:58.580Z,95.43
2017-09-16T05:59:25.633Z,94.91
2017-09-16T06:01:52.013Z,93.27
2017-09-16T06:04:18.358Z,93.71
2017-09-16T06:06:44.615Z,94.79
2017-09-16T06:09:10.918Z,94.49
2017-09-16T06:11:37.169Z,94.96
2017-09-16T06:14:03.399Z,94.82
2017-09-16T06:16:29.649Z,94.74
2017-09-16T06:18:55.902Z,95.83
2017-09-16T06:21:23.068Z,95.19
2017-09-16T06:23:49.350Z,95.88
2017-09-16T06:26:16.317Z,94.50
2017-09-16T06:28:42.743Z,95.91
2017-09-16T06:31:09.010Z,94.40
2017-09-16T06:33:35.258Z,94.28
2017-09-16T06:36:01.581Z,94.36
2017-09-16T06:38:27.838Z,95.20
2017-09-16T06:40:54.270Z,93.94
2017-09-16T06:43:22.549Z,95.17
2017-09-16T06:45:48.857Z,94.91
2017-09-16T06:48:15.141Z,95.20
2017-09-16T06:50:42.153Z,94.92
2017-09-16T06:53:08.404Z,95.20
2017-09-16T06:55:34.617Z,94.85
2017-09-16T06:58:00.855Z,95.82
2017-09-16T07:00:27.117Z,96.14
2017-09-16T07:02:53.438Z,96.42
2017-09-16T07:05:19.670Z,94.84
2017-09-16T07:07:45.882Z,95.09
2017-09-16T07:10:12.078Z,95.73
2017-09-16T07:12:39.165Z,95.40
2017-09-16T07:15:05.438Z,95.66
2017-09-16T07:17:31.626Z,94.72
2017-09-16T07:19:57.902Z,95.87
2017-09-16T07:22:24.121Z,94.72
2017-09-16T07:24:50.349Z,94.90
2017-09-16T07:27:16.591Z,94.69
2017-09-16T07:29:42.789Z,94.92
2017-09-16T07:32:09.802Z,95.10
2017-09-16T07:34:36.133Z,94.70
2017-09-16T07:37:02.440Z,95.38
2017-09-16T07:39:28.657Z,94.85
2017-09-16T07:41:54.893Z,94.92
2017-09-16T07:44:21.364Z,94.43
2017-09-16T07:46:47.570Z,94.91
2017-09-16T07:49:13.833Z,94.91
2017-09-16T07:51:40.054Z,94.86
2017-09-16T07:54:06.322Z,94.32
2017-09-16T07:56:33.343Z,95.61
2017-09-16T07:58:59.592Z,94.75
2017-09-16T08:01:25.811Z,94.59
2017-09-16T08:03:52.082Z,94.67
2017-09-16T08:06:18.265Z,94.48
2017-09-16T08:08:44.507Z,94.38
2017-09-16T08:11:10.779Z,94.25
2017-09-16T08:13:37.095Z,92.76
2017-09-16T08:16:03.340Z,93.78
2017-09-16T08:18:29.542Z,93.00
2017-09-16T08:20:55.788Z,92.76
2017-09-16T08:23:22.008Z,92.40
2017-09-16T08:25:48.284Z,91.79
2017-09-16T08:28:14.654Z,91.44
2017-09-16T08:30:41.627Z,89.45
2017-09-16T08:33:07.909Z,90.44
2017-09-16T08:35:34.238Z,90.16
2017-09-16T08:38:01.451Z,88.07
2017-09-16T08:40:27.722Z,89.10
2017-09-16T08:42:53.957Z,89.02
2017-09-16T08:45:20.203Z,90.62
2017-09-16T08:47:46.522Z,90.01
2017-09-16T08:50:12.806Z,88.92
2017-09-16T08:52:39.802Z,89.67
2017-09-16T08:55:06.039Z,90.72
2017-09-16T08:57:32.261Z,89.37
2017-09-16T08:59:58.455Z,90.57
2017-09-16T09:02:24.956Z,89.73
2017-09-16T09:04:51.194Z,89.47
2017-09-16T09:07:17.451Z,89.71
2017-09-16T09:09:43.748Z,89.66
2017-09-16T09:12:09.982Z,89.00
2017-09-16T09:14:36.349Z,90.50
2017-09-16T09:17:02.570Z,89.19
2017-09-16T09:19:28.855Z,90.25
2017-09-16T09:21:56.150Z,90.76
2017-09-16T09:24:22.453Z,88.52
2017-09-16T09:26:48.714Z,89.81
2017-09-16T09:29:17.463Z,90.10
2017-09-16T09:31:45.609Z,88.88
2017-09-16T09:34:11.907Z,86.61
2017-09-16T09:36:38.293Z,85.43
2017-09-16T09:39:04.833Z,87.08
2017-09-16T09:41:31.121Z,84.95
2017-09-16T09:43:57.378Z,85.28
2017-09-16T09:46:23.618Z,86.04
2017-09-16T09:48:49.877Z,85.83
2017-09-16T09:51:16.068Z,87.42
2017-09-16T09:53:48.569Z,87.81
2017-09-16T09:56:17.974Z,87.00
2017-09-16T09:58:44.190Z,83.86
2017-09-16T10:01:10.474Z,85.01
2017-09-16T10:03:36.769Z,85.76
2017-09-16T10:06:03.021Z,85.63
2017-09-16T10:08:29.285Z,84.92
2017-09-16T10:10:55.570Z,85.01
2017-09-16T10:13:28.056Z,83.62
2017-09-16T10:15:54.886Z,83.16
2017-09-16T10:18:21.309Z,82.63
2017-09-16T10:20:48.305Z,83.35
2017-09-16T10:23:14.541Z,81.14
2017-09-16T10:25:41.514Z,81.57
2017-09-16T10:28:07.873Z,80.09
2017-09-16T10:30:34.853Z,80.98
2017-09-16T10:33:01.105Z,81.26
2017-09-16T10:35:27.346Z,81.33
2017-09-16T10:37:53.550Z,82.01
2017-09-16T10:40:19.857Z,79.17
2017-09-16T10:42:46.034Z,79.99
2017-09-16T10:45:13.190Z,80.47
2017-09-16T10:47:39.431Z,78.65
2017-09-16T10:50:05.620Z,80.43
2017-09-16T10:52:32.623Z,79.62
2017-09-16T10:54:58.860Z,81.42
2017-09-16T10:57:25.082Z,80.01
2017-09-16T10:59:51.333Z,79.57
2017-09-16T11:02:18.190Z,79.45
2017-09-16T11:04:44.513Z,78.62
2017-09-16T11:07:10.790Z,78.18
2017-09-16T11:09:37.835Z,78.06
2017-09-16T11:12:04.450Z,77.40
2017-09-16T11:14:30.706Z,75.96
2017-09-16T11:16:57.010Z,74.78
2017-09-16T11:19:24.814Z,75.89
2017-09-16T11:21:51.121Z,75.34
2017-09-16T11:24:17.393Z,75.52
2017-09-16T11:26:45.631Z,73.49
2017-09-16T11:29:11.853Z,73.75
2017-09-16T11:31:38.374Z,74.24
2017-09-16T11:34:04.673Z,75.36
2017-09-16T11:36:30.852Z,73.10
2017-09-16T11:38:57.255Z,72.16
2017-09-16T11:41:24.252Z,71.57
2017-09-16T11:43:50.503Z,70.80
2017-09-16T11:46:17.789Z,70.32
2017-09-16T11:48:44.132Z,71.90
2017-09-16T11:51:11.017Z,70.78
2017-09-16T11:53:37.313Z,69.10
2017-09-16T11:56:03.620Z,69.06
2017-09-16T11:58:29.875Z,68.54
2017-09-16T12:00:56.111Z,69.62
2017-09-16T12:03:22.420Z,65.34
2017-09-16T12:05:48.792Z,66.74
2017-09-16T12:08:15.104Z,66.34
2017-09-16T12:10:41.317Z,67.14
2017-09-16T12:13:07.582Z,64.67
2017-09-16T12:15:33.798Z,63.40
2017-09-16T12:18:00.015Z,63.08
2017-09-16T12:20:26.351Z,63.28
2017-09-16T12:22:52.595Z,64.10
2017-09-16T12:25:18.867Z,63.80
2017-09-16T12:27:45.904Z,66.29
2017-09-16T12:30:13.074Z,64.78
2017-09-16T12:32:39.421Z,65.95
2017-09-16T12:35:05.737Z,63.07
2017-09-16T12:37:31.982Z,64.97
2017-09-16T12:39:58.184Z,63.18
2017-09-16T12:42:26.296Z,62.40
2017-09-16T12:44:52.686Z,62.99
2017-09-16T12:47:18.941Z,63.95
2017-09-16T12:49:45.170Z,64.96
2017-09-16T12:52:11.435Z,62.96
2017-09-16T12:54:37.791Z,60.36
2017-09-16T12:57:04.796Z,62.08
2017-09-16T12:59:31.042Z,61.98
2017-09-16T13:01:57.326Z,60.41
2017-09-16T13:04:24.409Z,60.97
2017-09-16T13:06:50.618Z,59.30
2017-09-16T13:09:17.637Z,57.18
2017-09-16T13:11:43.942Z,55.86
2017-09-16T13:14:10.161Z,57.38
2017-09-16T13:16:36.458Z,53.90
2017-09-16T13:19:02.741Z,56.31
2017-09-16T13:21:28.997Z,56.29
2017-09-16T13:23:55.225Z,53.97
2017-09-16T13:26:21.629Z,55.84
2017-09-16T13:28:47.846Z,52.41
2017-09-16T13:31:14.047Z,51.35
2017-09-16T13:33:40.329Z,49.22
2017-09-16T13:36:07.318Z,48.77
2017-09-16T13:38:33.559Z,48.38
2017-09-16T13:40:59.888Z,49.70
2017-09-16T13:43:26.121Z,50.50
2017-09-16T13:45:52.466Z,53.74
2017-09-16T13:48:18.658Z,55.68
2017-09-16T13:50:44.880Z,53.90
2017-09-16T13:53:11.160Z,51.93
2017-09-16T13:55:37.395Z,51.00
2017-09-16T13:58:03.630Z,53.51
2017-09-16T14:00:29.848Z,51.85
2017-09-16T14:02:56.101Z,50.01
2017-09-16T14:05:22.333Z,50.51
2017-09-16T14:07:49.605Z,50.94
2017-09-16T14:10:15.845Z,50.80
2017-09-16T14:12:42.042Z,48.31
2017-09-16T14:15:08.353Z,46.24
2017-09-16T14:17:35.323Z,43.56
2017-09-16T14:20:01.614Z,41.75
2017-09-16T14:22:27.906Z,38.18
2017-09-16T14:24:54.186Z,40.26
2017-09-16T14:27:21.360Z,42.52
2017-09-16T14:29:48.373Z,38.84
2017-09-16T14:32:15.746Z,38.96
2017-09-16T14:34:42.512Z,35.45
2017-09-16T14:37:08.765Z,37.41
2017-09-16T14:39:35.766Z,38.88
2017-09-16T14:42:02.011Z,38.61
2017-09-16T14:44:28.310Z,38.24
2017-09-16T14:46:54.700Z,40.04
2017-09-16T14:49:21.721Z,37.84
2017-09-16T14:51:47.961Z,35.58
2017-09-16T14:54:14.231Z,37.99
2017-09-16T14:56:41.257Z,42.58
2017-09-16T14:59:07.541Z,45.11
2017-09-16T15:01:34.478Z,45.30
2017-09-16T15:04:01.517Z,46.42
2017-09-16T15:06:28.509Z,49.92
2017-09-16T15:08:54.757Z,49.57
2017-09-16T15:11:21.010Z,50.47
2017-09-16T15:13:47.279Z,52.56
2017-09-16T15:16:13.572Z,52.34
2017-09-16T15:18:39.806Z,50.64
2017-09-16T15:21:06.067Z,52.08
2017-09-16T15:23:32.387Z,49.67
2017-09-16T15:25:58.597Z,48.52
2017-09-16T15:28:24.789Z,46.02
2017-09-16T15:30:51.076Z,46.55
2017-09-16T15:33:17.295Z,43.64
2017-09-16T15:35:43.532Z,45.11
2017-09-16T15:38:09.794Z,44.97
2017-09-16T15:40:36.030Z,45.98
2017-09-16T15:43:02.218Z,43.91
2017-09-16T15:45:28.480Z,45.16
2017-09-16T15:47:54.708Z,44.05
2017-09-16T15:50:20.897Z,46.61
2017-09-16T15:52:47.901Z,48.12
2017-09-16T15:55:14.208Z,50.36
2017-09-16T15:57:40.453Z,53.24
2017-09-16T16:00:06.693Z,53.37
2017-09-16T16:02:32.949Z,55.23
2017-09-16T16:04:59.213Z,55.84
2017-09-16T16:07:25.410Z,58.08
2017-09-16T16:09:51.682Z,61.35
2017-09-16T16:12:17.986Z,60.69
2017-09-16T16:14:44.233Z,62.61
2017-09-16T16:17:10.694Z,60.79
2017-09-16T16:19:37.716Z,61.90
2017-09-16T16:22:03.937Z,63.69
2017-09-16T16:24:30.373Z,63.56
2017-09-16T16:26:56.641Z,64.03
2017-09-16T16:29:23.121Z,66.35
2017-09-16T16:31:50.222Z,66.52
2017-09-16T16:34:16.552Z,66.53
2017-09-16T16:36:42.800Z,68.43
2017-09-16T16:39:09.111Z,69.78
2017-09-16T16:41:35.341Z,67.79
2017-09-16T16:44:01.633Z,68.29
2017-09-16T16:46:28.637Z,67.62
2017-09-16T16:48:54.856Z,68.65
2017-09-16T16:51:21.097Z,68.82
2017-09-16T16:53:47.258Z,68.17
2017-09-16T16:56:13.590Z,68.92
2017-09-16T16:58:39.815Z,68.82
2017-09-16T17:01:06.031Z,69.71
2017-09-16T17:03:32.290Z,70.05
2017-09-16T17:05:58.506Z,70.96
2017-09-16T17:08:24.708Z,71.01
2017-09-16T17:10:51.733Z,73.30
2017-09-16T17:13:18.005Z,73.67
2017-09-16T17:15:44.969Z,74.50
2017-09-16T17:18:11.363Z,74.51
2017-09-16T17:20:38.584Z,75.13
2017-09-16T17:23:05.603Z,77.00
2017-09-16T17:25:31.930Z,76.79
2017-09-16T17:27:58.240Z,75.31
2017-09-16T17:30:24.582Z,77.36
2017-09-16T17:32:50.898Z,79.57
2017-09-16T17:35:22.242Z,79.83
2017-09-16T17:37:48.907Z,80.92
2017-09-16T17:40:20.209Z,80.57
2017-09-16T17:42:49.098Z,81.61
2017-09-16T17:45:20.768Z,79.39
2017-09-16T17:47:52.630Z,82.88
2017-09-16T17:50:19.935Z,83.00
2017-09-16T17:52:46.135Z,84.07
2017-09-16T17:55:12.373Z,84.08
2017-09-16T17:57:38.726Z,83.77
2017-09-16T18:00:05.766Z,83.17
2017-09-16T18:02:32.006Z,82.49
2017-09-16T18:04:58.194Z,83.81
2017-09-16T18:07:24.486Z,80.96
2017-09-16T18:09:50.802Z,79.37
2017-09-16T18:12:18.023Z,79.85
2017-09-16T18:14:44.281Z,82.32
2017-09-16T18:17:10.670Z,84.15
2017-09-16T18:19:37.667Z,87.04
2017-09-16T18:22:03.932Z,85.38
2017-09-16T18:24:30.320Z,83.31
2017-09-16T18:26:57.332Z,87.71
2017-09-16T18:29:23.690Z,89.11
2017-09-16T18:31:50.657Z,89.48
2017-09-16T18:34:17.643Z,89.88
2017-09-16T18:36:43.910Z,90.24
2017-09-16T18:39:10.207Z,91.11
2017-09-16T18:41:36.454Z,91.64
2017-09-16T18:44:02.705Z,91.48
2017-09-16T18:46:29.045Z,91.86
2017-09-16T18:48:55.351Z,92.03
2017-09-16T18:51:21.589Z,92.38
2017-09-16T18:53:47.797Z,92.67
2017-09-16T18:56:14.814Z,92.73
2017-09-16T18:58:41.113Z,92.58
2017-09-16T19:01:07.362Z,91.61
2017-09-16T19:03:35.713Z,92.38
2017-09-16T19:06:01.982Z,93.19
2017-09-16T19:08:28.362Z,93.03
2017-09-16T19:10:55.427Z,89.35
2017-09-16T19:13:21.610Z,91.71
2017-09-16T19:15:47.830Z,91.48
2017-09-16T19:18:14.708Z,92.55
2017-09-16T19:20:42.648Z,93.17
2017-09-16T19:23:08.898Z,90.89
2017-09-16T19:25:35.248Z,90.68
2017-09-16T19:28:01.563Z,90.05
2017-09-16T19:30:27.806Z,88.00
2017-09-16T19:32:54.240Z,88.56
2017-09-16T19:35:20.812Z,89.80
2017-09-16T19:37:47.865Z,90.81
2017-09-16T19:40:14.865Z,89.83
2017-09-16T19:42:41.234Z,91.23
2017-09-16T19:45:07.669Z,93.97
2017-09-16T19:47:33.901Z,94.28
2017-09-16T19:50:00.157Z,93.82
2017-09-16T19:52:26.684Z,93.72
2017-09-16T19:54:52.907Z,94.07
2017-09-16T19:57:19.162Z,94.20
2017-09-16T19:59:45.409Z,90.04
2017-09-16T20:02:11.873Z,91.52
2017-09-16T20:04:38.878Z,89.25
2017-09-16T20:07:05.098Z,91.14
2017-09-16T20:09:31.337Z,92.12
2017-09-16T20:11:57.561Z,92.34
2017-09-16T20:14:23.786Z,91.10
2017-09-16T20:16:50.146Z,92.06
2017-09-16T20:19:16.341Z,93.60
2017-09-16T20:21:42.597Z,93.62
2017-09-16T20:24:08.877Z,93.46
2017-09-16T20:26:35.202Z,94.41
2017-09-16T20:29:01.547Z,93.20
2017-09-16T20:31:27.857Z,92.19
2017-09-16T20:33:54.057Z,93.54
2017-09-16T20:36:20.520Z,94.16
2017-09-16T20:38:46.773Z,93.28
2017-09-16T20:41:13.159Z,92.72
2017-09-16T20:43:40.144Z,89.98
2017-09-16T20:46:06.405Z,90.12
2017-09-16T20:48:32.763Z,92.52
2017-09-16T20:50:59.777Z,92.28
2017-09-16T20:53:25.998Z,93.90
2017-09-16T20:55:52.357Z,93.84
2017-09-16T20:58:18.687Z,94.23
2017-09-16T21:00:44.917Z,94.64
2017-09-16T21:03:11.194Z,94.74
2017-09-16T21:05:37.461Z,94.37
2017-09-16T21:08:03.742Z,94.91
2017-09-16T21:10:29.929Z,95.17
2017-09-16T21:12:56.207Z,95.11
2017-09-16T21:15:22.426Z,94.98
2017-09-16T21:17:48.670Z,93.28
2017-09-16T21:20:14.850Z,93.42
2017-09-16T21:22:42.144Z,94.32
2017-09-16T21:25:08.369Z,94.25
2017-09-16T21:27:34.626Z,94.78
2017-09-16T21:30:00.921Z,94.98
2017-09-16T21:32:27.156Z,94.71
2017-09-16T21:34:54.149Z,94.39
2017-09-16T21:37:20.353Z,94.03
2017-09-16T21:39:46.555Z,94.00
2017-09-16T21:42:18.617Z,93.89
2017-09-16T21:44:49.693Z,92.01
2017-09-16T21:47:16.288Z,91.42
2017-09-16T21:49:44.529Z,93.46
2017-09-16T21:52:10.709Z,94.30
2017-09-16T21:54:37.002Z,94.25
2017-09-16T21:57:04.258Z,94.58
2017-09-16T21:59:30.637Z,94.97
2017-09-16T22:01:56.936Z,94.95
2017-09-16T22:04:23.155Z,95.06
2017-09-16T22:06:49.451Z,93.59
2017-09-16T22:09:15.782Z,92.36
2017-09-16T22:11:42.113Z,94.00
2017-09-16T22:14:09.466Z,94.54
2017-09-16T22:16:35.751Z,94.44
2017-09-16T22:19:02.742Z,94.88
2017-09-16T22:21:28.953Z,95.00
2017-09-16T22:23:55.194Z,94.83
2017-09-16T22:26:21.433Z,94.82
2017-09-16T22:28:47.663Z,94.74
2017-09-16T22:31:13.910Z,93.94
2017-09-16T22:33:40.194Z,93.57
2017-09-16T22:36:07.175Z,91.14
2017-09-16T22:38:33.443Z,93.03
2017-09-16T22:40:59.758Z,91.83
2017-09-16T22:43:25.964Z,92.23
2017-09-16T22:45:53.762Z,93.67
2017-09-16T22:48:20.093Z,91.18
2017-09-16T22:50:46.306Z,91.46
2017-09-16T22:53:12.574Z,91.07
2017-09-16T22:55:38.849Z,92.41
2017-09-16T22:58:05.150Z,94.14
2017-09-16T23:00:31.382Z,94.26
2017-09-16T23:02:57.629Z,94.21
2017-09-16T23:05:23.936Z,90.89
2017-09-16T23:07:50.423Z,91.56
2017-09-16T23:10:16.705Z,91.66
2017-09-16T23:12:42.949Z,91.21
2017-09-16T23:15:09.195Z,90.42
2017-09-16T23:17:35.796Z,91.81
2017-09-16T23:20:02.064Z,92.84
2017-09-16T23:22:29.030Z,93.46
2017-09-16T23:24:57.050Z,94.64
2017-09-16T23:27:25.277Z,95.14
2017-09-16T23:29:51.578Z,95.10
2017-09-16T23:32:17.968Z,95.06
2017-09-16T23:34:44.282Z,95.01
2017-09-16T23:37:10.530Z,92.96
2017-09-16T23:39:36.745Z,92.34
2017-09-16T23:42:02.974Z,91.88
2017-09-16T23:44:29.217Z,91.42
2017-09-16T23:46:55.434Z,89.97
2017-09-16T23:49:21.718Z,90.42
2017-09-16T23:51:48.031Z,92.11
2017-09-16T23:54:14.257Z,93.32
2017-09-16T23:56:40.513Z,92.45
2017-09-16T23:59:06.745Z,90.76
